createdAt,value
2023-01-30T00:01:40.162Z,-5.90
2023-01-30T00:04:06.967Z,-5.80
2023-01-30T00:06:33.699Z,-5.80
2023-01-30T00:09:00.419Z,-5.70
2023-01-30T00:11:29.880Z,-5.50
2023-01-30T00:13:56.786Z,-5.40
2023-01-30T00:16:23.532Z,-5.30
2023-01-30T00:18:50.746Z,-5.30
2023-01-30T00:21:17.806Z,-5.20
2023-01-30T00:23:44.866Z,-5.10
2023-01-30T00:26:12.236Z,-5.10
2023-01-30T00:28:40.005Z,-5.00
2023-01-30T00:31:07.446Z,-4.90
2023-01-30T00:33:35.827Z,-4.90
2023-01-30T00:36:03.024Z,-4.90
2023-01-30T00:38:29.728Z,-4.90
2023-01-30T00:40:56.411Z,-4.90
2023-01-30T00:43:41.745Z,-4.90
2023-01-30T00:46:44.869Z,-4.90
2023-01-30T00:49:12.069Z,-4.90
2023-01-30T00:51:38.764Z,-4.90
2023-01-30T00:54:05.529Z,-5.00
2023-01-30T00:56:32.311Z,-5.10
2023-01-30T00:58:59.080Z,-5.10
2023-01-30T01:01:25.799Z,-5.10
2023-01-30T01:03:52.490Z,-5.10
2023-01-30T01:06:19.858Z,-5.10
2023-01-30T01:08:46.521Z,-5.10
2023-01-30T01:11:24.142Z,-5.10
2023-01-30T01:13:59.401Z,-5.10
2023-01-30T01:16:27.191Z,-5.10
2023-01-30T01:18:54.562Z,-5.10
2023-01-30T01:21:21.596Z,-5.20
2023-01-30T01:23:52.764Z,-5.10
2023-01-30T01:26:20.471Z,-5.20
2023-01-30T01:28:47.239Z,-5.20
2023-01-30T01:31:16.085Z,-5.20
2023-01-30T01:33:42.986Z,-5.20
2023-01-30T01:36:09.796Z,-5.20
2023-01-30T01:38:36.497Z,-5.10
2023-01-30T01:41:03.269Z,-5.00
2023-01-30T01:43:32.410Z,-5.10
2023-01-30T01:46:09.213Z,-5.10
2023-01-30T01:48:46.943Z,-5.10
2023-01-30T01:51:20.441Z,-5.10
2023-01-30T01:53:57.153Z,-5.10
2023-01-30T01:56:24.255Z,-4.90
2023-01-30T01:59:10.397Z,-4.80
2023-01-30T02:01:37.249Z,-4.80
2023-01-30T02:04:06.353Z,-4.70
2023-01-30T02:06:33.144Z,-4.70
2023-01-30T02:09:06.124Z,-4.70
2023-01-30T02:11:47.646Z,-4.60
2023-01-30T02:14:15.728Z,-4.60
2023-01-30T02:16:44.060Z,-4.50
2023-01-30T02:19:40.161Z,-4.50
2023-01-30T02:22:21.384Z,-4.50
2023-01-30T02:25:20.279Z,-4.60
2023-01-30T02:28:38.747Z,-4.60
2023-01-30T02:31:30.621Z,-4.60
2023-01-30T02:34:03.619Z,-4.60
2023-01-30T02:36:54.389Z,-4.60
2023-01-30T02:39:45.416Z,-4.50
2023-01-30T02:42:23.775Z,-4.50
2023-01-30T02:45:10.824Z,-4.40
2023-01-30T02:47:40.024Z,-4.40
2023-01-30T02:50:13.589Z,-4.40
2023-01-30T02:52:40.847Z,-4.40
2023-01-30T02:55:20.165Z,-4.40
2023-01-30T02:57:48.260Z,-4.40
2023-01-30T03:00:23.664Z,-4.40
2023-01-30T03:03:07.542Z,-4.30
2023-01-30T03:05:44.587Z,-4.30
2023-01-30T03:08:40.660Z,-4.30
2023-01-30T03:11:09.329Z,-4.30
2023-01-30T03:13:52.783Z,-4.30
2023-01-30T03:16:31.630Z,-4.30
2023-01-30T03:19:01.504Z,-4.30
2023-01-30T03:21:28.208Z,-4.30
2023-01-30T03:23:55.176Z,-4.30
2023-01-30T03:26:32.866Z,-4.30
2023-01-30T03:29:01.590Z,-4.30
2023-01-30T03:31:28.378Z,-4.30
2023-01-30T03:33:55.942Z,-4.30
2023-01-30T03:36:23.852Z,-4.30
2023-01-30T03:38:52.240Z,-4.40
2023-01-30T03:41:20.477Z,-4.30
2023-01-30T03:43:47.128Z,-4.30
2023-01-30T03:46:15.389Z,-4.40
2023-01-30T03:48:42.270Z,-4.40
2023-01-30T03:51:12.030Z,-4.40
2023-01-30T03:53:38.727Z,-4.40
2023-01-30T03:56:05.932Z,-4.30
2023-01-30T03:58:34.872Z,-4.10
2023-01-30T04:01:13.834Z,-4.10
2023-01-30T04:03:41.332Z,-4.00
2023-01-30T04:06:08.203Z,-3.90
2023-01-30T04:08:34.938Z,-3.90
2023-01-30T04:11:02.633Z,-3.90
2023-01-30T04:13:29.322Z,-3.90
2023-01-30T04:16:23.704Z,-3.80
2023-01-30T04:19:25.994Z,-3.80
2023-01-30T04:21:52.744Z,-3.80
2023-01-30T04:24:19.526Z,-3.80
2023-01-30T04:26:46.296Z,-3.70
2023-01-30T04:29:13.789Z,-3.70
2023-01-30T04:31:40.963Z,-3.70
2023-01-30T04:34:19.257Z,-3.60
2023-01-30T04:36:45.920Z,-3.60
2023-01-30T04:39:12.744Z,-3.60
2023-01-30T04:41:40.590Z,-3.60
2023-01-30T04:44:07.354Z,-3.60
2023-01-30T04:47:00.364Z,-3.70
2023-01-30T04:49:27.968Z,-3.80
2023-01-30T04:51:55.504Z,-3.90
2023-01-30T04:54:22.303Z,-4.00
2023-01-30T04:56:49.355Z,-4.00
2023-01-30T04:59:16.063Z,-4.00
2023-01-30T05:01:44.609Z,-4.10
2023-01-30T05:04:11.414Z,-4.20
2023-01-30T05:06:38.131Z,-4.20
2023-01-30T05:09:05.672Z,-4.20
2023-01-30T05:11:33.969Z,-4.30
2023-01-30T05:14:00.796Z,-4.20
2023-01-30T05:16:28.857Z,-4.20
2023-01-30T05:18:55.645Z,-4.20
2023-01-30T05:21:28.536Z,-4.20
2023-01-30T05:23:55.958Z,-4.00
2023-01-30T05:26:23.287Z,-3.90
2023-01-30T05:28:57.594Z,-3.80
2023-01-30T05:31:26.407Z,-3.80
2023-01-30T05:33:53.776Z,-3.80
2023-01-30T05:36:22.083Z,-3.80
2023-01-30T05:38:48.790Z,-3.70
2023-01-30T05:41:17.132Z,-3.70
2023-01-30T05:43:44.761Z,-3.70
2023-01-30T05:46:13.190Z,-3.70
2023-01-30T05:48:40.215Z,-3.70
2023-01-30T05:51:07.481Z,-3.80
2023-01-30T05:53:35.102Z,-3.70
2023-01-30T05:56:05.012Z,-3.80
2023-01-30T05:58:33.094Z,-3.80
2023-01-30T06:01:05.031Z,-3.80
2023-01-30T06:03:32.864Z,-3.80
2023-01-30T06:06:01.903Z,-3.80
2023-01-30T06:08:28.895Z,-3.80
2023-01-30T06:11:09.566Z,-3.90
2023-01-30T06:13:36.991Z,-3.90
2023-01-30T06:16:03.856Z,-3.90
2023-01-30T06:18:31.140Z,-3.90
2023-01-30T06:20:57.928Z,-3.90
2023-01-30T06:23:24.727Z,-3.80
2023-01-30T06:25:52.521Z,-3.80
2023-01-30T06:28:20.201Z,-3.70
2023-01-30T06:30:46.915Z,-3.60
2023-01-30T06:33:14.199Z,-3.60
2023-01-30T06:35:42.409Z,-3.60
2023-01-30T06:38:11.503Z,-3.50
2023-01-30T06:40:38.836Z,-3.50
2023-01-30T06:43:05.795Z,-3.50
2023-01-30T06:45:32.777Z,-3.40
2023-01-30T06:47:59.552Z,-3.40
2023-01-30T06:50:28.057Z,-3.30
2023-01-30T06:52:55.417Z,-3.40
2023-01-30T06:55:25.366Z,-3.40
2023-01-30T06:58:03.002Z,-3.40
2023-01-30T07:00:30.466Z,-3.50
2023-01-30T07:02:57.300Z,-3.50
2023-01-30T07:05:24.094Z,-3.50
2023-01-30T07:07:50.741Z,-3.60
2023-01-30T07:10:17.920Z,-3.70
2023-01-30T07:12:46.444Z,-3.70
2023-01-30T07:15:13.562Z,-3.70
2023-01-30T07:17:41.769Z,-3.80
2023-01-30T07:20:10.039Z,-3.80
2023-01-30T07:22:36.698Z,-3.90
2023-01-30T07:25:03.936Z,-3.90
2023-01-30T07:27:30.715Z,-3.80
2023-01-30T07:29:57.405Z,-3.80
2023-01-30T07:32:24.209Z,-3.90
2023-01-30T07:34:51.022Z,-3.90
2023-01-30T07:37:17.684Z,-3.90
2023-01-30T07:39:44.462Z,-3.90
2023-01-30T07:42:11.421Z,-3.90
2023-01-30T07:44:38.108Z,-3.90
2023-01-30T07:47:05.029Z,-4.00
2023-01-30T07:49:31.938Z,-4.20
2023-01-30T07:51:58.758Z,-4.20
2023-01-30T07:54:26.700Z,-4.20
2023-01-30T07:56:53.389Z,-4.30
2023-01-30T07:59:20.147Z,-4.30
2023-01-30T08:01:46.982Z,-4.30
2023-01-30T08:04:13.695Z,-4.30
2023-01-30T08:06:40.435Z,-4.20
2023-01-30T08:09:07.580Z,-4.30
2023-01-30T08:11:34.840Z,-4.20
2023-01-30T08:14:01.843Z,-4.20
2023-01-30T08:16:28.577Z,-4.00
2023-01-30T08:18:55.278Z,-4.00
2023-01-30T08:21:22.001Z,-3.90
2023-01-30T08:23:48.711Z,-3.80
2023-01-30T08:26:15.497Z,-3.70
2023-01-30T08:28:42.946Z,-3.70
2023-01-30T08:31:11.317Z,-3.60
2023-01-30T08:33:38.211Z,-3.70
2023-01-30T08:36:05.461Z,-3.70
2023-01-30T08:38:32.190Z,-3.60
2023-01-30T08:41:00.876Z,-3.60
2023-01-30T08:43:27.840Z,-3.50
2023-01-30T08:45:55.429Z,-3.50
2023-01-30T08:48:22.495Z,-3.40
2023-01-30T08:50:53.152Z,-3.30
2023-01-30T08:53:19.928Z,-3.30
2023-01-30T08:55:49.391Z,-3.20
2023-01-30T08:58:16.095Z,-3.20
2023-01-30T09:00:45.013Z,-3.30
2023-01-30T09:03:16.764Z,-3.20
2023-01-30T09:05:43.454Z,-3.00
2023-01-30T09:08:10.206Z,-2.90
2023-01-30T09:10:37.045Z,-2.70
2023-01-30T09:13:05.435Z,-2.80
2023-01-30T09:15:32.969Z,-2.90
2023-01-30T09:17:59.678Z,-2.70
2023-01-30T09:20:26.647Z,-2.50
2023-01-30T09:22:53.559Z,-2.30
2023-01-30T09:25:20.490Z,-2.10
2023-01-30T09:27:50.922Z,-2.30
2023-01-30T09:30:18.676Z,-2.40
2023-01-30T09:32:45.660Z,-2.30
2023-01-30T09:35:12.437Z,-2.20
2023-01-30T09:37:46.219Z,-2.20
2023-01-30T09:40:17.423Z,-2.10
2023-01-30T09:43:13.610Z,-2.00
2023-01-30T09:45:59.982Z,-1.90
2023-01-30T09:48:35.058Z,-1.70
2023-01-30T09:51:23.357Z,-1.60
2023-01-30T09:53:56.028Z,-1.60
2023-01-30T09:56:22.744Z,-1.60
2023-01-30T09:58:54.427Z,-1.70
2023-01-30T10:01:32.851Z,-1.80
2023-01-30T10:04:15.379Z,-1.60
2023-01-30T10:06:48.406Z,-1.60
2023-01-30T10:09:36.195Z,-1.70
2023-01-30T10:12:43.440Z,-1.60
2023-01-30T10:15:23.781Z,-1.50
2023-01-30T10:18:24.406Z,-1.50
2023-01-30T10:21:18.330Z,-1.30
2023-01-30T10:24:11.494Z,-1.20
2023-01-30T10:26:41.669Z,-1.20
2023-01-30T10:29:30.265Z,-0.90
2023-01-30T10:32:19.971Z,-0.90
2023-01-30T10:34:51.485Z,-0.80
2023-01-30T10:37:45.028Z,-0.80
2023-01-30T10:40:38.302Z,-0.70
2023-01-30T10:43:22.072Z,-0.50
2023-01-30T10:46:00.656Z,-0.40
2023-01-30T10:48:55.216Z,-0.50
2023-01-30T10:52:16.136Z,-0.50
2023-01-30T10:55:06.038Z,-0.60
2023-01-30T10:57:54.304Z,-0.60
2023-01-30T11:00:25.193Z,-0.60
2023-01-30T11:03:18.775Z,-0.60
2023-01-30T11:05:48.257Z,-0.40
2023-01-30T11:08:35.640Z,-0.20
2023-01-30T11:11:28.903Z,-0.10
2023-01-30T11:14:10.097Z,-0.10
2023-01-30T11:19:16.648Z,-0.10
2023-01-30T11:21:32.072Z,-0.20
2023-01-30T11:24:21.279Z,0.00
2023-01-30T11:26:48.814Z,0.00
2023-01-30T11:29:30.564Z,0.00
2023-01-30T11:32:05.335Z,0.20
2023-01-30T11:34:32.719Z,0.30
2023-01-30T11:37:31.849Z,0.50
2023-01-30T11:39:58.837Z,0.60
2023-01-30T11:42:30.362Z,0.40
2023-01-30T11:45:15.637Z,0.70
2023-01-30T11:47:58.842Z,0.80
2023-01-30T11:50:40.098Z,0.70
2023-01-30T11:53:28.152Z,0.40
2023-01-30T11:56:05.323Z,0.50
2023-01-30T11:58:35.812Z,0.40
2023-01-30T12:01:03.057Z,0.40
2023-01-30T12:03:30.411Z,0.30
2023-01-30T12:05:58.753Z,0.30
2023-01-30T12:08:41.947Z,0.30
2023-01-30T12:11:32.120Z,0.50
2023-01-30T12:14:13.530Z,0.70
2023-01-30T12:16:52.409Z,0.80
2023-01-30T12:19:47.235Z,0.90
2023-01-30T12:22:47.836Z,0.90
2023-01-30T12:25:22.125Z,1.00
2023-01-30T12:28:01.422Z,1.10
2023-01-30T12:30:51.570Z,0.90
2023-01-30T12:33:19.436Z,0.80
2023-01-30T12:36:05.634Z,0.80
2023-01-30T12:39:13.855Z,0.70
2023-01-30T12:41:58.490Z,0.70
2023-01-30T12:45:03.067Z,0.60
2023-01-30T12:47:49.000Z,0.50
2023-01-30T12:50:49.180Z,0.60
2023-01-30T12:53:32.697Z,0.60
2023-01-30T12:56:19.533Z,0.60
2023-01-30T12:58:55.137Z,0.50
2023-01-30T13:01:44.518Z,0.50
2023-01-30T13:04:18.899Z,0.40
2023-01-30T13:07:16.557Z,0.50
2023-01-30T13:10:00.657Z,0.50
2023-01-30T13:12:41.366Z,0.50
2023-01-30T13:15:37.848Z,0.40
2023-01-30T13:18:17.137Z,0.50
2023-01-30T13:20:48.906Z,0.60
2023-01-30T13:23:41.346Z,0.60
2023-01-30T13:26:13.134Z,0.60
2023-01-30T13:28:53.446Z,0.60
2023-01-30T13:31:25.188Z,0.70
2023-01-30T13:34:09.722Z,0.70
2023-01-30T13:36:45.943Z,0.70
2023-01-30T13:41:55.459Z,0.80
2023-01-30T13:44:24.756Z,0.80
2023-01-30T13:46:54.196Z,0.90
2023-01-30T13:49:37.371Z,0.90
2023-01-30T13:52:27.089Z,0.90
2023-01-30T13:55:15.910Z,1.00
2023-01-30T13:58:17.662Z,0.90
2023-01-30T14:00:55.495Z,1.00
2023-01-30T14:03:33.087Z,0.90
2023-01-30T14:06:06.016Z,0.90
2023-01-30T14:08:32.626Z,0.90
2023-01-30T14:13:31.349Z,1.20
2023-01-30T14:16:05.082Z,0.70
2023-01-30T14:18:35.973Z,0.60
2023-01-30T14:21:25.382Z,0.50
2023-01-30T14:24:25.052Z,0.80
2023-01-30T14:26:59.806Z,0.50
2023-01-30T14:29:38.758Z,0.40
2023-01-30T14:32:35.332Z,0.40
2023-01-30T14:35:03.255Z,0.40
2023-01-30T14:37:38.797Z,0.30
2023-01-30T14:40:23.532Z,0.30
2023-01-30T14:43:11.813Z,0.20
2023-01-30T14:45:53.412Z,0.20
2023-01-30T14:48:38.284Z,0.20
2023-01-30T14:51:35.277Z,0.10
2023-01-30T14:54:27.471Z,0.20
2023-01-30T14:56:58.740Z,0.20
2023-01-30T14:59:37.145Z,0.10
2023-01-30T15:02:06.408Z,0.10
2023-01-30T15:04:39.090Z,0.00
2023-01-30T15:07:22.554Z,-0.10
2023-01-30T15:10:00.013Z,-0.20
2023-01-30T15:12:32.589Z,-0.20
2023-01-30T15:15:19.038Z,-0.20
2023-01-30T15:18:13.517Z,-0.30
2023-01-30T15:21:03.633Z,-0.30
2023-01-30T15:23:50.517Z,-0.20
2023-01-30T15:26:30.775Z,-0.20
2023-01-30T15:29:17.153Z,-0.20
2023-01-30T15:31:57.874Z,-0.20
2023-01-30T15:34:29.447Z,0.20
2023-01-30T15:36:56.569Z,0.00
2023-01-30T15:39:25.969Z,0.00
2023-01-30T15:41:57.223Z,0.00
2023-01-30T15:45:08.972Z,-0.10
2023-01-30T15:48:10.875Z,-0.10
2023-01-30T15:50:37.839Z,-0.10
2023-01-30T15:53:11.987Z,-0.20
2023-01-30T15:55:38.658Z,-0.20
2023-01-30T15:58:10.763Z,-0.20
2023-01-30T16:00:40.997Z,-0.30
2023-01-30T16:03:25.284Z,-0.30
2023-01-30T16:05:57.026Z,-0.40
2023-01-30T16:08:31.990Z,-0.30
2023-01-30T16:11:00.597Z,-0.30
2023-01-30T16:13:28.755Z,-0.30
2023-01-30T16:16:14.797Z,-0.30
2023-01-30T16:18:51.278Z,-0.30
2023-01-30T16:21:20.950Z,-0.20
2023-01-30T16:24:24.741Z,-0.20
2023-01-30T16:26:56.073Z,-0.20
2023-01-30T16:29:28.560Z,-0.20
2023-01-30T16:31:55.776Z,-0.20
2023-01-30T16:34:22.649Z,-0.20
2023-01-30T16:36:49.435Z,-0.20
2023-01-30T16:39:35.975Z,-0.20
2023-01-30T16:42:20.082Z,-0.20
2023-01-30T16:44:46.760Z,-0.20
2023-01-30T16:47:27.184Z,-0.30
2023-01-30T16:49:55.815Z,-0.30
2023-01-30T16:52:36.993Z,-0.30
2023-01-30T16:55:07.790Z,-0.30
2023-01-30T16:57:37.657Z,-0.30
2023-01-30T17:00:27.992Z,-0.30
2023-01-30T17:02:57.523Z,-0.30
2023-01-30T17:05:27.291Z,-0.40
2023-01-30T17:07:58.173Z,-0.40
2023-01-30T17:10:27.974Z,-0.40
2023-01-30T17:12:55.474Z,-0.40
2023-01-30T17:15:22.294Z,-0.40
2023-01-30T17:17:49.405Z,-0.40
2023-01-30T17:20:16.591Z,-0.40
2023-01-30T17:22:46.007Z,-0.40
2023-01-30T17:25:31.642Z,-0.50
2023-01-30T17:27:58.803Z,-0.40
2023-01-30T17:30:25.599Z,-0.40
2023-01-30T17:32:52.320Z,-0.50
2023-01-30T17:35:19.322Z,-0.50
2023-01-30T17:37:53.251Z,-0.50
2023-01-30T17:40:36.957Z,-0.50
2023-01-30T17:43:04.325Z,-0.50
2023-01-30T17:45:31.187Z,-0.50
2023-01-30T17:47:57.827Z,-0.50
2023-01-30T17:51:59.240Z,-0.20
2023-01-30T17:54:26.807Z,-0.50
2023-01-30T17:56:58.948Z,-0.50
2023-01-30T17:59:25.911Z,-0.50
2023-01-30T18:01:53.201Z,-0.40
2023-01-30T18:04:20.741Z,-0.40
2023-01-30T18:06:50.507Z,-0.40
2023-01-30T18:09:20.475Z,-0.50
2023-01-30T18:11:47.816Z,-0.40
2023-01-30T18:14:15.028Z,-0.40
2023-01-30T18:16:41.921Z,-0.40
2023-01-30T18:19:13.444Z,-0.40
2023-01-30T18:21:40.390Z,-0.30
2023-01-30T18:24:07.544Z,-0.30
2023-01-30T18:26:34.392Z,-0.30
2023-01-30T18:29:01.063Z,-0.30
2023-01-30T18:31:31.497Z,-0.30
2023-01-30T18:33:58.435Z,-0.30
2023-01-30T18:36:25.187Z,-0.30
2023-01-30T18:38:53.488Z,-0.30
2023-01-30T18:41:22.807Z,-0.20
2023-01-30T18:44:01.258Z,-0.30
2023-01-30T18:46:28.848Z,-0.20
2023-01-30T18:48:57.209Z,-0.20
2023-01-30T18:51:26.929Z,-0.20
2023-01-30T18:53:54.562Z,-0.10
2023-01-30T18:56:24.066Z,-0.10
2023-01-30T18:58:52.792Z,-0.10
2023-01-30T19:01:22.205Z,-0.10
2023-01-30T19:03:48.982Z,-0.20
2023-01-30T19:06:18.269Z,-0.20
2023-01-30T19:08:45.717Z,-0.20
2023-01-30T19:11:33.843Z,-0.20
2023-01-30T19:14:00.843Z,-0.20
2023-01-30T19:16:29.095Z,-0.30
2023-01-30T19:18:56.682Z,-0.30
2023-01-30T19:21:24.837Z,-0.30
2023-01-30T19:23:52.124Z,-0.30
2023-01-30T19:26:21.335Z,-0.30
2023-01-30T19:28:48.271Z,-0.30
2023-01-30T19:31:20.498Z,-0.30
2023-01-30T19:33:53.156Z,-0.30
2023-01-30T19:36:21.323Z,-0.30
2023-01-30T19:38:48.544Z,-0.30
2023-01-30T19:41:17.416Z,-0.40
2023-01-30T19:43:44.109Z,-0.30
2023-01-30T19:46:11.748Z,-0.40
2023-01-30T19:48:39.410Z,-0.30
2023-01-30T19:51:20.460Z,-0.30
2023-01-30T19:53:51.751Z,-0.30
2023-01-30T19:56:21.642Z,-0.30
2023-01-30T19:58:52.465Z,-0.30
2023-01-30T20:01:21.198Z,-0.30
2023-01-30T20:03:48.664Z,-0.30
2023-01-30T20:06:24.249Z,-0.40
2023-01-30T20:08:55.628Z,-0.40
2023-01-30T20:11:22.364Z,-0.40
2023-01-30T20:13:50.277Z,-0.40
2023-01-30T20:16:20.585Z,-0.40
2023-01-30T20:18:49.091Z,-0.40
2023-01-30T20:21:18.896Z,-0.40
2023-01-30T20:23:46.372Z,-0.50
2023-01-30T20:26:16.273Z,-0.50
2023-01-30T20:28:43.634Z,-0.50
2023-01-30T20:31:16.072Z,-0.50
2023-01-30T20:33:43.258Z,-0.60
2023-01-30T20:36:12.735Z,-0.50
2023-01-30T20:38:41.318Z,-0.50
2023-01-30T20:41:09.646Z,-0.50
2023-01-30T20:43:38.709Z,-0.50
2023-01-30T20:46:07.903Z,-0.50
2023-01-30T20:48:35.780Z,-0.50
2023-01-30T20:51:07.975Z,-0.50
2023-01-30T20:53:35.283Z,-0.50
2023-01-30T20:56:02.709Z,-0.40
2023-01-30T20:58:29.769Z,-0.40
2023-01-30T21:00:57.300Z,-0.40
2023-01-30T21:03:25.425Z,-0.40
2023-01-30T21:05:58.963Z,-0.40
2023-01-30T21:08:26.621Z,-0.40
2023-01-30T21:11:09.971Z,-0.40
2023-01-30T21:13:38.321Z,-0.40
2023-01-30T21:16:20.126Z,-0.50
2023-01-30T21:18:49.583Z,-0.40
2023-01-30T21:21:22.992Z,-0.50
2023-01-30T21:23:51.963Z,-0.40
2023-01-30T21:26:20.741Z,-0.40
2023-01-30T21:28:48.265Z,-0.50
2023-01-30T21:31:21.906Z,-0.40
2023-01-30T21:33:49.545Z,-0.40
2023-01-30T21:36:17.203Z,-0.40
2023-01-30T21:39:03.459Z,-0.40
2023-01-30T21:41:51.070Z,-0.40
2023-01-30T21:44:25.793Z,-0.40
2023-01-30T21:46:52.553Z,-0.50
2023-01-30T21:49:19.991Z,-0.50
2023-01-30T21:51:48.907Z,-0.50
2023-01-30T21:54:17.164Z,-0.50
2023-01-30T21:56:44.749Z,-0.40
2023-01-30T21:59:12.328Z,-0.50
2023-01-30T22:01:40.080Z,-0.40
2023-01-30T22:04:09.966Z,-0.50
2023-01-30T22:06:37.784Z,-0.50
2023-01-30T22:09:06.028Z,-0.50
2023-01-30T22:11:35.490Z,-0.50
2023-01-30T22:14:02.241Z,-0.50
2023-01-30T22:16:30.050Z,-0.50
2023-01-30T22:19:02.278Z,-0.50
2023-01-30T22:21:32.329Z,-0.60
2023-01-30T22:23:59.248Z,-0.60
2023-01-30T22:26:26.494Z,-0.60
2023-01-30T22:28:58.378Z,-0.60
2023-01-30T22:31:26.656Z,-0.60
2023-01-30T22:33:55.239Z,-0.60
2023-01-30T22:36:27.740Z,-0.60
2023-01-30T22:38:54.945Z,-0.50
2023-01-30T22:41:23.982Z,-0.50
2023-01-30T22:43:59.029Z,-0.50
2023-01-30T22:46:31.438Z,-0.60
2023-01-30T22:48:59.799Z,-0.60
2023-01-30T22:51:29.221Z,-0.60
2023-01-30T22:54:01.280Z,-0.60
2023-01-30T22:56:30.722Z,-0.50
2023-01-30T22:58:57.586Z,-0.60
2023-01-30T23:01:30.512Z,-0.60
2023-01-30T23:03:59.805Z,-0.60
2023-01-30T23:06:27.143Z,-0.50
2023-01-30T23:08:55.197Z,-0.50
2023-01-30T23:11:35.727Z,-0.50
2023-01-30T23:14:15.848Z,-0.50
2023-01-30T23:16:44.787Z,-0.50
2023-01-30T23:19:13.549Z,-0.50
2023-01-30T23:21:45.572Z,-0.40
2023-01-30T23:24:17.668Z,-0.50
2023-01-30T23:26:47.243Z,-0.50
2023-01-30T23:29:16.492Z,-0.50
2023-01-30T23:31:44.696Z,-0.50
2023-01-30T23:34:18.333Z,-0.50
2023-01-30T23:36:45.986Z,-0.50
2023-01-30T23:39:14.000Z,-0.50
2023-01-30T23:41:42.116Z,-0.50
2023-01-30T23:44:09.432Z,-0.50
2023-01-30T23:46:39.087Z,-0.50
2023-01-30T23:49:08.529Z,-0.50
2023-01-30T23:51:37.513Z,-0.40
2023-01-30T23:54:05.508Z,-0.40
2023-01-30T23:56:35.448Z,-0.40
2023-01-30T23:59:02.741Z,-0.40
